Time;durP1;ratioP1;P1;durP2;ratioP2;P2;SDS_P1;SDS_P2;PMS_P1;PMS_P2;Temp;Humidity;BMP_temperature;BMP_pressure;BME280_temperature;BME280_humidity;BME280_pressure;Samples;Min_cycle;Max_cycle;Signal;HPM_P1;HPM_P2
2022/05/03 00:00:07;;;;;;;14.75;13.25;;;;;;;10.66;67.74;98782.84;2621429;50;20038;-65
2022/05/03 00:02:46;;;;;;;13.52;12.13;;;;;;;10.69;68.14;98784.25;2622671;54;20601;-65
2022/05/03 00:05:33;;;;;;;17.20;12.68;;;;;;;10.70;67.63;98774.53;2622498;54;20042;-64
2022/05/03 00:08:07;;;;;;;13.63;12.32;;;;;;;10.71;67.43;98774.31;2622264;54;20026;-65
2022/05/03 00:10:47;;;;;;;13.55;12.30;;;;;;;10.79;67.35;98773.34;2619917;54;20034;-64
2022/05/03 00:13:21;;;;;;;30.48;13.88;;;;;;;10.76;67.29;98779.84;2620112;54;20070;-63
2022/05/03 00:15:53;;;;;;;13.32;12.00;;;;;;;10.70;67.27;98777.19;2619733;47;20037;-63
2022/05/03 00:18:23;;;;;;;14.02;11.95;;;;;;;10.59;68.17;98765.31;2618875;54;20118;-65
2022/05/03 00:20:57;;;;;;;14.55;12.85;;;;;;;10.61;68.02;98763.25;2619682;54;20587;-65
2022/05/03 00:23:27;;;;;;;14.57;12.95;;;;;;;10.66;67.48;98766.16;2619888;54;20042;-65
2022/05/03 00:25:58;;;;;;;13.50;12.18;;;;;;;10.66;67.87;98753.75;2619787;54;20077;-63
2022/05/03 00:28:28;;;;;;;15.23;12.68;;;;;;;10.71;67.66;98762.94;2619055;47;20035;-63
2022/05/03 00:30:58;;;;;;;14.55;12.45;;;;;;;10.73;68.07;98755.63;2620117;54;20031;-63
2022/05/03 00:33:29;;;;;;;15.25;13.52;;;;;;;10.72;67.56;98757.44;2620518;54;20030;-63
2022/05/03 00:36:01;;;;;;;15.68;13.43;;;;;;;10.65;67.54;98767.16;2621385;54;20033;-63
2022/05/03 00:38:34;;;;;;;14.23;12.77;;;;;;;10.55;68.04;98764.06;2622389;54;20046;-65
2022/05/03 00:41:07;;;;;;;15.03;13.63;;;;;;;10.51;68.20;98766.25;2622945;54;20222;-64
2022/05/03 00:43:46;;;;;;;13.30;12.07;;;;;;;10.51;68.56;98765.44;2623018;54;20033;-63
2022/05/03 00:46:19;;;;;;;13.85;12.60;;;;;;;10.51;68.38;98768.91;2622936;54;20034;-63
2022/05/03 00:49:14;;;;;;;13.30;12.05;;;;;;;10.48;68.29;98771.94;2622784;54;20053;-62
2022/05/03 00:51:59;;;;;;;12.85;11.63;;;;;;;10.54;68.56;98767.72;2623304;54;20053;-63
2022/05/03 00:54:41;;;;;;;13.02;11.82;;;;;;;10.56;68.28;98768.31;2623683;39;20418;-65
2022/05/03 00:57:31;;;;;;;12.90;11.57;;;;;;;10.53;68.20;98760.78;2622742;54;20034;-63
2022/05/03 01:00:10;;;;;;;13.50;12.20;;;;;;;10.56;68.33;98757.75;2623878;54;20040;-63
2022/05/03 01:02:59;;;;;;;12.95;11.60;;;;;;;10.54;67.84;98752.66;2622997;54;20042;-63
2022/05/03 01:05:30;;;;;;;14.35;12.93;;;;;;;10.54;68.01;98752.66;2622283;54;20030;-63
2022/05/03 01:08:07;;;;;;;13.15;11.90;;;;;;;10.52;67.99;98759.97;2621223;54;20041;-65
2022/05/03 01:10:43;;;;;;;12.10;10.95;;;;;;;10.46;68.34;98758.09;2620576;54;20037;-63
2022/05/03 01:13:23;;;;;;;13.40;12.00;;;;;;;10.56;68.69;98758.56;2620299;54;20034;-63
2022/05/03 01:16:00;;;;;;;13.45;12.15;;;;;;;10.53;68.12;98758.97;2620432;54;20030;-63
2022/05/03 01:18:37;;;;;;;12.77;11.45;;;;;;;10.46;68.23;98758.09;2619709;47;20538;-64
2022/05/03 01:21:12;;;;;;;13.55;11.85;;;;;;;10.47;68.57;98759.72;2620624;46;20050;-64
2022/05/03 01:24:05;;;;;;;13.55;12.25;;;;;;;10.41;68.26;98757.88;2620039;54;20037;-62
2022/05/03 01:27:10;;;;;;;14.63;12.35;;;;;;;10.36;68.73;98755.78;2619999;54;20038;-63
2022/05/03 01:29:46;;;;;;;13.90;12.55;;;;;;;10.37;68.64;98759.25;2620368;54;20037;-62
2022/05/03 01:32:21;;;;;;;13.88;12.43;;;;;;;10.35;68.79;98754.16;2620654;54;20041;-63
2022/05/03 01:34:52;;;;;;;13.35;12.05;;;;;;;10.35;68.71;98750.69;2620262;54;20080;-65
2022/05/03 01:37:45;;;;;;;13.25;11.82;;;;;;;10.32;69.01;98754.53;2622507;31;20570;-64
2022/05/03 01:40:24;;;;;;;13.27;11.98;;;;;;;10.31;68.79;98752.09;2622215;54;20072;-65
2022/05/03 01:43:10;;;;;;;14.30;12.90;;;;;;;10.29;68.67;98751.47;2622372;54;20046;-63
2022/05/03 01:45:51;;;;;;;13.50;12.20;;;;;;;10.24;68.77;98751.19;2622686;54;20041;-63
2022/05/03 01:51:27;;;;;;;14.05;12.20;;;;;;;10.22;68.75;98747.94;2618830;54;20049;-64
2022/05/03 01:54:10;;;;;;;13.63;12.23;;;;;;;10.18;69.04;98750.13;2619530;54;20038;-62
2022/05/03 01:56:54;;;;;;;14.55;13.02;;;;;;;10.11;69.50;98758.00;2620069;54;20085;-62
2022/05/03 01:59:33;;;;;;;18.25;12.13;;;;;;;10.15;69.19;98759.25;2620421;54;20101;-63
2022/05/03 02:02:16;;;;;;;15.10;12.93;;;;;;;10.16;69.14;98758.25;2620736;54;20027;-63
2022/05/03 02:05:07;;;;;;;13.70;12.50;;;;;;;10.15;68.90;98753.97;2621292;54;20044;-64
2022/05/03 02:07:56;;;;;;;14.38;12.98;;;;;;;10.11;69.56;98759.81;2621103;54;20026;-64
2022/05/03 02:10:48;;;;;;;13.70;11.95;;;;;;;10.13;69.83;98753.34;2621890;31;20518;-67
2022/05/03 02:16:32;;;;;;;13.10;11.88;;;;;;;10.18;69.65;98750.13;2620722;54;20030;-64
2022/05/03 02:19:15;;;;;;;13.68;12.38;;;;;;;10.22;69.28;98740.00;2621351;54;20038;-63
2022/05/03 02:21:54;;;;;;;14.90;12.52;;;;;;;10.27;69.16;98741.09;2621608;54;20046;-65
2022/05/03 02:24:37;;;;;;;14.65;11.90;;;;;;;10.30;68.94;98734.59;2621061;47;20035;-64
2022/05/03 02:27:11;;;;;;;12.82;11.52;;;;;;;10.21;69.11;98739.19;2620498;54;20057;-63
2022/05/03 02:29:46;;;;;;;;;;;;;;;10.20;69.46;98744.66;2622157;54;20041;-63
2022/05/03 02:32:24;;;;;;;13.60;12.20;;;;;;;10.28;69.08;98742.72;2620975;47;19953;-63
2022/05/03 02:35:04;;;;;;;24.05;19.98;;;;;;;10.32;68.79;98743.16;2622121;54;20026;-63
2022/05/03 02:37:38;;;;;;;14.40;13.00;;;;;;;10.30;69.13;98739.91;2622141;54;20030;-64
2022/05/03 02:40:11;;;;;;;13.93;11.88;;;;;;;10.30;69.27;98734.59;2623131;54;20027;-63
2022/05/03 02:42:42;;;;;;;13.20;11.93;;;;;;;10.26;68.95;98728.88;2622720;54;20035;-63
2022/05/03 02:45:14;;;;;;;13.05;11.73;;;;;;;10.32;69.05;98732.56;2622828;54;20027;-63
2022/05/03 02:47:50;;;;;;;13.15;11.48;;;;;;;10.31;68.74;98736.22;2622927;54;20102;-64
2022/05/03 02:50:29;;;;;;;14.43;12.98;;;;;;;10.33;68.49;98739.50;2621953;47;20559;-63
2022/05/03 02:53:03;;;;;;;14.55;13.10;;;;;;;10.19;68.65;98743.84;2622774;46;20054;-63
2022/05/03 02:55:50;;;;;;;14.75;13.25;;;;;;;9.91;69.36;98741.97;2621942;47;20034;-63
2022/05/03 02:58:36;;;;;;;14.88;13.30;;;;;;;9.90;70.34;98742.16;2622337;54;20031;-63
2022/05/03 03:04:05;;;;;;;15.43;13.60;;;;;;;10.07;69.82;98734.78;2623444;54;20045;-64
2022/05/03 03:06:43;;;;;;;14.02;12.50;;;;;;;10.01;69.56;98740.84;2623605;54;20027;-63
2022/05/03 03:09:20;;;;;;;14.32;12.95;;;;;;;9.93;69.79;98739.16;2621929;54;20026;-63
2022/05/03 03:11:58;;;;;;;15.13;12.80;;;;;;;9.84;69.69;98735.84;2623217;54;20045;-64
2022/05/03 03:14:37;;;;;;;14.48;13.00;;;;;;;9.73;70.19;98738.97;2622853;54;20078;-63
2022/05/03 03:17:08;;;;;;;14.50;12.95;;;;;;;9.71;70.80;98740.97;2622755;54;20313;-64
2022/05/03 03:20:08;;;;;;;16.42;13.38;;;;;;;9.76;70.40;98740.44;2623068;54;20035;-62
2022/05/03 03:22:42;;;;;;;14.10;12.63;;;;;;;9.81;70.81;98738.84;2623259;54;20042;-65
2022/05/03 03:25:14;;;;;;;14.05;12.73;;;;;;;9.88;70.36;98736.28;2622558;54;20064;-63
2022/05/03 03:27:45;;;;;;;14.20;12.77;;;;;;;9.92;70.20;98732.25;2622046;54;20031;-62
2022/05/03 03:30:22;;;;;;;14.95;13.52;;;;;;;9.88;69.77;98738.91;2622775;54;20582;-63
2022/05/03 03:32:56;;;;;;;15.60;14.07;;;;;;;9.78;70.41;98735.75;2621472;54;20038;-63
2022/05/03 03:35:25;;;;;;;13.80;12.27;;;;;;;9.78;71.03;98733.94;2622000;54;20081;-63
2022/05/03 03:38:02;;;;;;;14.10;12.60;;;;;;;9.93;70.43;98731.25;2622954;54;20037;-63
2022/05/03 03:40:31;;;;;;;15.32;12.70;;;;;;;9.99;70.74;98737.56;2623896;54;20562;-62
2022/05/03 03:43:01;;;;;;;13.73;12.38;;;;;;;10.06;70.06;98749.81;2620454;54;20142;-62
2022/05/03 03:45:31;;;;;;;13.13;11.80;;;;;;;10.01;70.14;98746.13;2623799;54;20038;-63
2022/05/03 03:48:04;;;;;;;14.75;13.15;;;;;;;10.01;70.26;98744.31;2622290;54;20585;-63
2022/05/03 03:50:35;;;;;;;15.85;14.27;;;;;;;9.96;70.00;98738.78;2619936;54;20078;-63
2022/05/03 03:53:08;;;;;;;15.38;13.95;;;;;;;9.88;69.76;98745.00;2619013;47;20646;-63
2022/05/03 03:55:38;;;;;;;16.27;13.57;;;;;;;9.84;70.63;98740.31;2619886;54;20037;-63
2022/05/03 03:58:08;;;;;;;15.50;13.57;;;;;;;9.87;70.68;98742.53;2619574;54;20577;-65
2022/05/03 04:00:38;;;;;;;15.02;13.52;;;;;;;9.87;70.49;98745.19;2619494;54;20026;-63
2022/05/03 04:03:09;;;;;;;13.57;12.27;;;;;;;9.87;70.42;98739.91;2619556;54;20174;-63
2022/05/03 04:05:38;;;;;;;14.35;12.95;;;;;;;9.86;70.37;98738.28;2619809;54;20042;-62
2022/05/03 04:08:11;;;;;;;14.60;13.10;;;;;;;9.87;70.66;98738.06;2622781;54;20054;-63
2022/05/03 04:10:40;;;;;;;14.30;12.90;;;;;;;9.86;70.67;98740.91;2623220;54;20569;-63
2022/05/03 04:13:10;;;;;;;13.65;12.20;;;;;;;9.91;70.63;98735.88;2623206;54;20027;-63
2022/05/03 04:15:40;;;;;;;13.70;12.20;;;;;;;10.00;70.31;98744.47;2626157;54;20042;-65
2022/05/03 04:18:10;;;;;;;14.65;13.15;;;;;;;10.05;70.30;98742.91;2626829;54;20031;-65
2022/05/03 04:20:40;;;;;;;15.23;13.13;;;;;;;10.08;70.12;98747.00;2626338;54;20035;-65
2022/05/03 04:23:12;;;;;;;13.40;12.05;;;;;;;10.11;69.77;98749.25;2626141;54;20034;-66
2022/05/03 04:25:41;;;;;;;15.48;13.88;;;;;;;10.05;69.65;98742.09;2625683;54;20564;-65
2022/05/03 04:28:11;;;;;;;14.70;13.23;;;;;;;10.04;69.44;98741.28;2623566;54;20023;-64
2022/05/03 04:30:40;;;;;;;14.73;13.25;;;;;;;10.08;69.61;98741.72;2621524;54;20065;-65
2022/05/03 04:33:10;;;;;;;14.30;12.90;;;;;;;10.12;69.70;98750.88;2618162;54;20047;-65
2022/05/03 04:35:39;;;;;;;14.25;12.85;;;;;;;10.17;69.74;98751.97;2618418;54;20038;-64
2022/05/03 04:38:12;;;;;;;13.27;11.80;;;;;;;10.21;69.85;98744.47;2618328;54;20041;-64
2022/05/03 04:40:41;;;;;;;16.98;15.18;;;;;;;10.23;69.64;98749.56;2618649;54;20031;-63
2022/05/03 04:43:11;;;;;;;17.50;14.35;;;;;;;10.30;69.50;98750.47;2618455;54;20074;-64
2022/05/03 04:45:40;;;;;;;16.70;13.55;;;;;;;10.34;69.53;98747.25;2618193;54;20085;-65
2022/05/03 04:48:12;;;;;;;14.93;13.43;;;;;;;10.34;69.23;98754.34;2618182;54;20045;-66
2022/05/03 04:50:41;;;;;;;15.32;13.68;;;;;;;10.27;69.12;98745.56;2618003;54;20569;-65
2022/05/03 04:53:13;;;;;;;15.88;13.32;;;;;;;10.27;69.38;98750.84;2618433;54;20081;-65
2022/05/03 04:55:43;;;;;;;14.05;12.10;;;;;;;10.32;70.01;98757.16;2618521;54;20030;-66
2022/05/03 04:58:13;;;;;;;17.13;14.50;;;;;;;10.45;70.00;98758.28;2618104;54;20034;-66
2022/05/03 05:00:43;;;;;;;16.48;13.63;;;;;;;10.53;69.10;98760.78;2618334;54;20038;-65
2022/05/03 05:03:13;;;;;;;16.65;14.27;;;;;;;10.56;69.38;98761.22;2618556;54;20061;-65
2022/05/03 05:05:42;;;;;;;15.15;12.95;;;;;;;10.64;68.83;98762.88;2618217;54;20038;-66
2022/05/03 05:08:14;;;;;;;16.45;13.63;;;;;;;10.64;69.22;98763.69;2618173;54;20033;-66
2022/05/03 05:10:44;;;;;;;13.88;12.32;;;;;;;10.69;69.09;98770.22;2618444;54;20034;-64
2022/05/03 05:13:14;;;;;;;13.93;12.52;;;;;;;10.77;68.76;98773.53;2618649;39;20426;-65
2022/05/03 05:15:43;;;;;;;13.15;11.52;;;;;;;10.84;68.90;98771.75;2618543;54;20084;-65
2022/05/03 05:18:14;;;;;;;14.38;12.38;;;;;;;10.95;68.74;98770.41;2617848;54;20044;-66
2022/05/03 05:20:44;;;;;;;13.07;11.88;;;;;;;11.02;68.55;98779.19;2619130;54;21297;-65
2022/05/03 05:23:16;;;;;;;12.98;11.68;;;;;;;11.07;68.03;98771.47;2619092;39;20202;-65
2022/05/03 05:25:50;;;;;;;13.90;12.48;;;;;;;11.15;68.46;98773.16;2618679;54;20045;-65
2022/05/03 05:28:21;;;;;;;15.50;13.82;;;;;;;11.18;67.71;98772.72;2618789;54;20593;-65
2022/05/03 05:30:52;;;;;;;15.80;13.98;;;;;;;11.21;67.64;98766.25;2620683;54;20034;-67
2022/05/03 05:33:22;;;;;;;15.05;13.45;;;;;;;11.28;67.48;98761.78;2620370;47;20027;-66
2022/05/03 05:35:53;;;;;;;16.58;14.85;;;;;;;11.32;67.47;98761.19;2621565;54;20030;-66
2022/05/03 05:38:25;;;;;;;17.10;13.15;;;;;;;11.33;67.22;98764.66;2619909;54;20030;-65
2022/05/03 05:40:55;;;;;;;16.65;14.73;;;;;;;11.43;67.09;98769.56;2620240;54;20031;-65
2022/05/03 05:43:24;;;;;;;15.15;13.65;;;;;;;11.52;66.63;98766.56;2621191;39;20430;-66
2022/05/03 05:45:54;;;;;;;14.35;12.85;;;;;;;11.51;66.59;98769.38;2618966;54;20042;-66
2022/05/03 05:48:23;;;;;;;14.63;13.13;;;;;;;11.54;66.83;98766.34;2619198;54;20034;-66
2022/05/03 05:50:53;;;;;;;14.40;13.02;;;;;;;11.64;66.73;98770.25;2620691;54;20026;-66
2022/05/03 05:53:31;;;;;;;15.07;13.63;;;;;;;11.71;66.45;98772.09;2618914;54;20034;-64
2022/05/03 05:56:02;;;;;;;19.42;16.02;;;;;;;11.75;66.42;98774.13;2618776;54;20033;-65
2022/05/03 05:58:32;;;;;;;22.30;19.20;;;;;;;11.79;66.10;98771.91;2621177;54;20030;-65
2022/05/03 06:01:01;;;;;;;16.30;13.82;;;;;;;11.85;66.32;98776.44;2622692;54;20577;-64
2022/05/03 06:03:32;;;;;;;16.10;14.30;;;;;;;11.90;66.03;98774.00;2622981;47;20023;-64
2022/05/03 06:06:02;;;;;;;15.55;13.63;;;;;;;11.92;65.82;98781.72;2622304;54;20049;-65
2022/05/03 06:08:34;;;;;;;16.60;13.93;;;;;;;12.00;65.64;98781.53;2618677;54;20167;-64
2022/05/03 06:11:04;;;;;;;17.45;15.07;;;;;;;12.00;65.24;98789.50;2618355;54;20783;-65
2022/05/03 06:13:34;;;;;;;17.70;14.50;;;;;;;12.02;65.22;98784.81;2618100;54;20035;-65
2022/05/03 06:16:10;;;;;;;20.50;14.38;;;;;;;12.10;65.49;98790.72;2618053;54;20038;-65
2022/05/03 06:18:40;;;;;;;22.00;15.27;;;;;;;12.14;64.98;98791.97;2618103;54;20026;-65
2022/05/03 06:21:10;;;;;;;17.08;15.35;;;;;;;12.21;64.95;98785.88;2617860;54;20037;-65
2022/05/03 06:23:42;;;;;;;21.67;13.55;;;;;;;12.25;65.49;98790.56;2617791;54;20065;-65
2022/05/03 06:26:13;;;;;;;17.15;14.35;;;;;;;12.40;64.59;98796.44;2618198;54;20037;-65
2022/05/03 06:28:47;;;;;;;19.13;14.63;;;;;;;12.51;64.81;98791.56;2617987;54;20042;-65
2022/05/03 06:31:20;;;;;;;21.77;13.88;;;;;;;12.66;64.50;98792.16;2618837;54;20035;-66
2022/05/03 06:33:50;;;;;;;17.77;13.48;;;;;;;12.77;64.04;98806.63;2619032;54;20031;-64
2022/05/03 06:36:19;;;;;;;21.73;14.60;;;;;;;12.88;63.52;98806.81;2618826;54;20042;-66
2022/05/03 06:38:51;;;;;;;15.18;13.68;;;;;;;12.89;63.18;98807.63;2618286;54;20034;-66
2022/05/03 06:41:21;;;;;;;15.60;14.00;;;;;;;12.98;63.77;98808.19;2618488;54;20041;-65
2022/05/03 06:43:51;;;;;;;15.95;14.27;;;;;;;13.12;63.21;98801.84;2618878;54;20030;-65
2022/05/03 06:46:20;;;;;;;16.80;14.00;;;;;;;13.23;62.82;98803.91;2618873;46;20046;-65
2022/05/03 06:48:50;;;;;;;17.63;14.20;;;;;;;13.34;62.45;98802.41;2617956;54;20034;-64
2022/05/03 06:51:20;;;;;;;14.60;13.18;;;;;;;13.39;62.46;98797.31;2619145;54;20038;-65
2022/05/03 06:53:52;;;;;;;13.40;11.90;;;;;;;13.47;62.49;98806.84;2617834;54;20711;-64
2022/05/03 06:56:21;;;;;;;15.60;13.45;;;;;;;13.60;62.19;98801.50;2617369;47;20085;-65
2022/05/03 06:58:51;;;;;;;14.77;13.27;;;;;;;13.72;61.41;98801.66;2617698;54;20030;-65
2022/05/03 07:01:20;;;;;;;15.98;13.68;;;;;;;13.66;61.72;98800.63;2617319;47;20022;-66
2022/05/03 07:03:50;;;;;;;16.67;14.85;;;;;;;13.71;61.54;98806.13;2617789;54;20045;-66
2022/05/03 07:06:21;;;;;;;15.85;14.35;;;;;;;13.66;61.34;98805.94;2617791;54;20576;-66
2022/05/03 07:08:53;;;;;;;14.75;13.25;;;;;;;13.63;61.03;98809.88;2617463;54;20046;-65
2022/05/03 07:11:23;;;;;;;17.98;13.35;;;;;;;13.70;61.49;98812.47;2617864;54;20027;-65
2022/05/03 07:13:53;;;;;;;15.00;13.30;;;;;;;13.82;61.09;98810.75;2618076;54;20038;-65
2022/05/03 07:16:22;;;;;;;15.23;12.45;;;;;;;13.96;61.10;98810.69;2618800;54;20034;-67
2022/05/03 07:24:24;;;;;;;14.90;13.40;;;;;;;14.24;60.50;98804.97;2617826;54;20031;-65
2022/05/03 07:26:57;;;;;;;16.52;13.02;;;;;;;14.33;60.53;98809.00;2618431;54;20033;-64
2022/05/03 07:29:27;;;;;;;13.60;12.15;;;;;;;14.45;60.65;98814.41;2618694;54;20142;-65
2022/05/03 07:31:56;;;;;;;14.60;12.93;;;;;;;14.52;60.36;98808.06;2618666;54;20039;-65
2022/05/03 07:34:26;;;;;;;15.75;13.90;;;;;;;14.64;60.29;98813.47;2618627;54;20026;-64
2022/05/03 07:36:55;;;;;;;14.60;13.13;;;;;;;14.70;59.93;98809.16;2618264;54;20089;-65
2022/05/03 07:39:27;;;;;;;15.48;12.93;;;;;;;14.68;59.96;98816.53;2618687;54;20038;-65
2022/05/03 07:41:57;;;;;;;14.05;12.55;;;;;;;14.79;59.61;98815.81;2618542;54;20035;-65
2022/05/03 07:44:27;;;;;;;14.50;12.95;;;;;;;14.95;59.62;98814.44;2619038;39;20442;-65
2022/05/03 07:46:57;;;;;;;14.98;13.18;;;;;;;15.05;59.27;98814.72;2618366;54;20035;-65
2022/05/03 07:49:26;;;;;;;14.35;12.85;;;;;;;15.18;59.35;98816.41;2618731;54;20033;-65
2022/05/03 07:51:56;;;;;;;18.98;12.90;;;;;;;15.25;58.64;98819.81;2618571;54;20030;-65
2022/05/03 07:54:29;;;;;;;13.25;11.48;;;;;;;15.24;58.95;98819.03;2618783;54;20033;-65
2022/05/03 07:56:58;;;;;;;13.27;11.98;;;;;;;15.28;58.49;98819.41;2618291;54;20034;-65
2022/05/03 07:59:28;;;;;;;14.55;11.65;;;;;;;15.35;58.22;98828.94;2618651;54;20077;-64
2022/05/03 08:01:57;;;;;;;15.23;11.23;;;;;;;15.40;57.96;98822.13;2619043;39;20458;-66
2022/05/03 08:04:33;;;;;;;12.93;11.63;;;;;;;15.50;57.77;98823.22;2621406;54;20029;-65
2022/05/03 08:07:03;;;;;;;13.70;12.30;;;;;;;15.66;57.90;98823.66;2624047;54;20054;-66
2022/05/03 08:09:36;;;;;;;15.35;10.95;;;;;;;15.69;57.68;98821.38;2624556;54;20027;-66
2022/05/03 08:12:07;;;;;;;12.07;10.63;;;;;;;15.71;57.86;98819.28;2618615;54;20038;-66
2022/05/03 08:14:36;;;;;;;13.20;11.10;;;;;;;15.80;57.47;98823.28;2618631;54;20066;-65
2022/05/03 08:17:07;;;;;;;12.77;11.23;;;;;;;15.87;56.94;98819.69;2618351;54;20045;-66
2022/05/03 08:19:37;;;;;;;12.40;11.20;;;;;;;15.80;57.15;98830.47;2618642;54;20042;-64
2022/05/03 08:22:07;;;;;;;12.93;10.70;;;;;;;15.82;56.99;98823.84;2619028;39;20430;-65
2022/05/03 08:24:39;;;;;;;12.55;11.25;;;;;;;15.95;57.29;98827.38;2618653;39;20426;-65
2022/05/03 08:27:09;;;;;;;12.00;10.80;;;;;;;15.96;57.00;98837.84;2618363;54;20038;-64
2022/05/03 08:29:38;;;;;;;12.10;9.98;;;;;;;15.98;56.88;98826.94;2618997;39;20419;-65
2022/05/03 08:32:09;;;;;;;13.90;12.52;;;;;;;16.10;56.20;98827.78;2619144;39;20455;-66
2022/05/03 08:34:39;;;;;;;14.30;12.80;;;;;;;16.13;56.35;98831.84;2618425;54;20045;-66
2022/05/03 08:42:35;;;;;;;12.25;10.07;;;;;;;16.63;55.25;98828.81;2618355;54;20041;-65
2022/05/03 08:45:06;;;;;;;11.68;9.75;;;;;;;16.75;55.40;98838.47;2618496;54;20038;-64
2022/05/03 08:47:38;;;;;;;11.77;10.57;;;;;;;16.98;54.38;98834.16;2618233;54;20069;-64
2022/05/03 08:50:09;;;;;;;11.55;10.02;;;;;;;16.98;54.14;98828.81;2617972;47;20026;-64
2022/05/03 08:52:44;;;;;;;10.18;9.18;;;;;;;17.03;54.82;98840.44;2618680;54;20034;-64
2022/05/03 08:55:17;;;;;;;9.88;8.88;;;;;;;17.20;53.92;98840.56;2618380;39;20430;-64
2022/05/03 08:57:47;;;;;;;10.13;9.13;;;;;;;17.34;53.74;98843.78;2617684;47;20079;-66
2022/05/03 09:00:20;;;;;;;10.50;8.77;;;;;;;17.68;53.09;98834.06;2619651;47;20063;-64
2022/05/03 09:02:51;;;;;;;18.23;10.83;;;;;;;17.97;52.72;98837.56;2624152;54;20030;-63
2022/05/03 09:05:22;;;;;;;10.20;8.07;;;;;;;18.12;52.35;98826.31;2620710;39;20416;-64
2022/05/03 09:07:52;;;;;;;14.07;9.07;;;;;;;18.21;50.44;98838.28;2618248;54;20038;-64
2022/05/03 09:10:27;;;;;;;11.80;9.50;;;;;;;18.17;50.12;98833.66;2618445;54;20080;-64
2022/05/03 09:12:57;;;;;;;15.35;9.90;;;;;;;18.48;49.53;98830.41;2618609;39;20430;-65
2022/05/03 09:15:35;;;;;;;13.82;9.50;;;;;;;18.65;48.36;98835.75;2618254;54;20030;-63
2022/05/03 09:18:04;;;;;;;9.85;9.02;;;;;;;18.78;49.21;98832.00;2618145;54;20039;-64
2022/05/03 09:26:13;;;;;;;10.18;7.95;;;;;;;19.03;48.04;98824.31;2618551;54;20042;-63
2022/05/03 09:28:48;;;;;;;11.20;9.73;;;;;;;19.10;46.26;98831.34;2618134;54;20030;-65
2022/05/03 09:31:34;;;;;;;11.38;8.90;;;;;;;19.04;46.43;98831.28;2618781;39;20423;-64
2022/05/03 09:34:05;;;;;;;9.20;7.28;;;;;;;18.81;46.65;98824.25;2618455;54;20081;-64
2022/05/03 09:36:46;;;;;;;10.52;8.60;;;;;;;18.98;46.14;98824.25;2617447;47;20049;-64
2022/05/03 09:39:35;;;;;;;11.30;8.10;;;;;;;18.97;47.07;98825.28;2618644;54;20045;-63
2022/05/03 09:42:10;;;;;;;11.35;8.75;;;;;;;18.94;46.42;98825.81;2618385;54;20037;-63
2022/05/03 09:44:52;;;;;;;10.27;8.43;;;;;;;19.06;46.08;98820.31;2618184;54;20034;-63
2022/05/03 09:47:23;;;;;;;8.88;8.07;;;;;;;19.14;45.56;98822.56;2618264;54;20022;-64
2022/05/03 09:49:53;;;;;;;10.20;7.70;;;;;;;19.01;45.91;98815.69;2618319;54;20038;-62
2022/05/03 09:52:30;;;;;;;8.63;7.82;;;;;;;18.82;45.94;98817.06;2618400;54;20038;-63
2022/05/03 09:55:03;;;;;;;8.52;7.60;;;;;;;18.82;45.33;98825.09;2618284;54;20026;-64
2022/05/03 09:57:38;;;;;;;10.18;7.50;;;;;;;18.82;45.52;98814.38;2618129;54;20027;-65
2022/05/03 10:00:10;;;;;;;10.10;7.18;;;;;;;18.91;45.94;98814.75;2618539;54;20053;-64
2022/05/03 10:02:45;;;;;;;14.38;8.45;;;;;;;19.06;45.17;98820.31;2619076;54;20562;-68
2022/05/03 10:05:20;;;;;;;8.93;7.93;;;;;;;19.10;44.52;98813.41;2624461;54;20035;-64
2022/05/03 10:07:50;;;;;;;;;;;;;;;19.16;45.66;98814.28;2623336;54;20077;-66
2022/05/03 10:10:20;;;;;;;8.88;7.20;;;;;;;19.36;44.73;98811.88;2620794;54;19946;-64
2022/05/03 10:12:53;;;;;;;8.98;7.63;;;;;;;19.52;43.63;98811.00;2618649;39;20451;-64
2022/05/03 10:20:52;;;;;;;9.90;6.72;;;;;;;19.19;44.01;98801.22;2619982;54;20039;-63
2022/05/03 10:23:23;;;;;;;9.00;6.88;;;;;;;19.24;43.83;98803.97;2619739;54;20034;-64
2022/05/03 10:25:57;;;;;;;7.88;7.13;;;;;;;19.23;43.85;98799.66;2620471;54;20038;-64
2022/05/03 10:29:08;;;;;;;7.75;7.00;;;;;;;19.38;43.71;98795.53;2619401;54;20029;-63
2022/05/03 10:31:56;;;;;;;7.65;6.88;;;;;;;19.57;43.50;98791.47;2619258;47;20030;-65
2022/05/03 10:35:04;;;;;;;10.07;7.15;;;;;;;19.70;43.71;98784.94;2620184;54;20069;-64
2022/05/03 10:38:05;;;;;;;7.22;6.53;;;;;;;19.79;42.33;98780.72;2619844;54;20030;-63
2022/05/03 10:40:39;;;;;;;8.43;7.03;;;;;;;19.64;43.08;98776.03;2620380;54;20045;-63
2022/05/03 10:43:16;;;;;;;8.95;7.30;;;;;;;19.67;43.35;98772.84;2619437;54;20034;-65
2022/05/03 10:45:54;;;;;;;8.10;6.55;;;;;;;19.85;43.60;98769.00;2618793;47;20526;-64
2022/05/03 10:48:29;;;;;;;9.57;6.45;;;;;;;19.99;42.86;98767.50;2619076;39;20410;-65
2022/05/03 10:51:01;;;;;;;8.57;7.10;;;;;;;20.08;42.66;98759.81;2621747;39;20430;-65
2022/05/03 10:53:33;;;;;;;10.25;7.53;;;;;;;20.14;42.58;98755.31;2620379;47;20034;-65
2022/05/03 10:56:16;;;;;;;9.88;7.30;;;;;;;20.23;42.18;98751.09;2620947;54;20038;-65
2022/05/03 10:59:05;;;;;;;14.73;7.53;;;;;;;20.40;42.17;98745.56;2620827;54;20034;-65
2022/05/03 11:02:10;;;;;;;7.05;6.10;;;;;;;20.48;42.33;98737.88;2620924;54;20038;-65
2022/05/03 11:05:18;;;;;;;12.60;6.18;;;;;;;20.50;42.04;98746.50;2620923;39;20418;-65
2022/05/03 11:08:18;;;;;;;9.13;7.35;;;;;;;20.53;41.92;98745.16;2619823;54;20030;-65
2022/05/03 11:10:48;;;;;;;7.38;6.68;;;;;;;20.20;42.42;98752.41;2620435;54;20139;-65
2022/05/03 11:13:39;;;;;;;6.97;6.38;;;;;;;20.25;42.63;98738.22;2621361;54;20033;-64
2022/05/03 11:16:26;;;;;;;8.30;7.10;;;;;;;20.27;42.67;98736.88;2621427;54;20042;-65
2022/05/03 11:18:59;;;;;;;7.63;6.88;;;;;;;20.45;42.80;98734.84;2619489;54;20039;-63
2022/05/03 11:21:28;;;;;;;11.57;6.43;;;;;;;20.65;42.62;98734.22;2620127;54;20034;-64
2022/05/03 11:23:58;;;;;;;6.45;5.60;;;;;;;20.74;40.98;98738.03;2627807;39;20399;-67
2022/05/03 11:26:28;;;;;;;7.68;5.40;;;;;;;20.74;39.35;98736.16;2625159;54;20035;-65
2022/05/03 11:29:00;;;;;;;10.75;5.57;;;;;;;20.67;40.15;98730.22;2625092;54;20045;-66
2022/05/03 11:31:30;;;;;;;7.82;6.00;;;;;;;20.73;38.77;98723.78;2625004;54;20030;-65
2022/05/03 11:34:02;;;;;;;6.10;4.80;;;;;;;20.63;38.92;98728.31;2625429;54;20039;-65
2022/05/03 11:36:32;;;;;;;5.65;5.07;;;;;;;20.46;39.05;98728.44;2625643;54;20038;-65
2022/05/03 11:39:03;;;;;;;7.28;5.70;;;;;;;20.36;39.32;98731.03;2624872;54;20042;-65
2022/05/03 11:41:33;;;;;;;7.18;5.53;;;;;;;20.29;39.93;98723.22;2618806;54;20026;-66
2022/05/03 11:44:03;;;;;;;7.28;5.28;;;;;;;20.22;39.79;98723.44;2618524;39;20463;-66
2022/05/03 11:46:33;;;;;;;8.57;6.03;;;;;;;20.21;40.01;98724.50;2619210;54;20558;-66
2022/05/03 11:49:07;;;;;;;8.75;6.28;;;;;;;20.22;39.52;98726.13;2618472;39;20442;-66
2022/05/03 11:57:10;;;;;;;7.55;5.78;;;;;;;20.30;39.17;98722.16;2618538;54;20106;-67
2022/05/03 11:59:40;;;;;;;7.00;5.53;;;;;;;20.33;38.57;98720.81;2618695;54;20026;-66
2022/05/03 12:02:15;;;;;;;7.72;6.00;;;;;;;20.26;39.02;98724.53;2618995;54;20034;-66
2022/05/03 12:05:16;;;;;;;8.60;5.32;;;;;;;20.30;38.94;98724.84;2619065;54;20578;-66
2022/05/03 12:07:47;;;;;;;6.78;6.00;;;;;;;20.45;39.20;98732.16;2618593;54;20038;-66
2022/05/03 12:10:22;;;;;;;9.50;5.45;;;;;;;20.45;39.08;98741.06;2619171;39;20438;-66
2022/05/03 12:13:08;;;;;;;15.95;4.93;;;;;;;20.36;40.37;98758.69;2618251;54;20035;-66
2022/05/03 12:15:40;;;;;;;6.82;4.55;;;;;;;20.08;42.14;98754.44;2618173;54;20026;-66
2022/05/03 12:18:15;;;;;;;8.10;5.70;;;;;;;19.70;43.30;98750.06;2618354;54;20027;-67
2022/05/03 12:20:50;;;;;;;6.78;4.70;;;;;;;19.42;44.62;98749.22;2618455;54;20042;-66
2022/05/03 12:23:22;;;;;;;7.40;4.78;;;;;;;19.12;45.09;98751.53;2618940;54;20061;-67
2022/05/03 12:25:54;;;;;;;6.05;4.57;;;;;;;18.91;45.67;98747.81;2618490;54;20023;-67
2022/05/03 12:28:37;;;;;;;5.32;4.15;;;;;;;18.64;46.45;98747.66;2617981;54;20026;-67
2022/05/03 12:31:08;;;;;;;5.07;4.68;;;;;;;18.52;47.03;98759.25;2618977;54;20562;-66